createdAt,value
2022-09-30T00:00:54.235Z,0.00
2022-09-30T00:01:54.275Z,0.00
2022-09-30T00:02:54.247Z,0.00
2022-09-30T00:03:54.219Z,0.00
2022-09-30T00:04:54.230Z,0.00
2022-09-30T00:05:54.220Z,0.00
2022-09-30T00:06:54.214Z,0.00
2022-09-30T00:07:54.207Z,0.00
2022-09-30T00:08:54.205Z,0.00
2022-09-30T00:09:54.319Z,0.00
2022-09-30T00:10:54.196Z,0.00
2022-09-30T00:11:54.190Z,0.00
2022-09-30T00:12:54.175Z,0.00
2022-09-30T00:13:54.172Z,0.00
2022-09-30T00:14:54.183Z,0.00
2022-09-30T00:15:54.202Z,0.00
2022-09-30T00:16:54.159Z,0.00
2022-09-30T00:17:54.151Z,0.00
2022-09-30T00:18:54.172Z,0.00
2022-09-30T00:19:54.793Z,0.00
2022-09-30T00:20:54.138Z,0.00
2022-09-30T00:21:54.135Z,0.00
2022-09-30T00:22:54.122Z,0.00
2022-09-30T00:23:54.119Z,0.00
2022-09-30T00:24:54.110Z,0.00
2022-09-30T00:25:54.117Z,0.00
2022-09-30T00:26:54.124Z,0.00
2022-09-30T00:27:54.094Z,0.00
2022-09-30T00:28:54.094Z,0.00
2022-09-30T00:29:54.089Z,0.00
2022-09-30T00:30:54.086Z,0.00
2022-09-30T00:31:54.178Z,0.00
2022-09-30T00:32:54.077Z,0.00
2022-09-30T00:33:54.070Z,0.00
2022-09-30T00:34:54.079Z,0.00
2022-09-30T00:35:54.075Z,0.00
2022-09-30T00:36:54.057Z,0.00
2022-09-30T00:37:54.043Z,0.00
2022-09-30T00:38:54.041Z,0.00
2022-09-30T00:39:54.039Z,0.00
2022-09-30T00:40:54.058Z,0.00
2022-09-30T00:41:54.040Z,0.00
2022-09-30T00:42:54.039Z,0.00
2022-09-30T00:43:54.023Z,0.00
2022-09-30T00:44:54.011Z,0.00
2022-09-30T00:45:54.712Z,0.00
2022-09-30T00:46:54.784Z,0.00
2022-09-30T00:47:54.001Z,0.00
2022-09-30T00:48:54.056Z,0.00
2022-09-30T00:49:53.987Z,0.00
2022-09-30T00:50:53.987Z,0.00
2022-09-30T00:51:54.002Z,0.00
2022-09-30T00:52:53.973Z,0.00
2022-09-30T00:53:54.712Z,0.00
2022-09-30T00:54:53.958Z,0.00
2022-09-30T00:55:53.954Z,0.00
2022-09-30T00:56:53.947Z,0.00
2022-09-30T00:57:55.244Z,0.00
2022-09-30T00:58:53.948Z,0.00
2022-09-30T00:59:53.938Z,0.00
2022-09-30T01:00:54.003Z,0.00
2022-09-30T01:01:54.870Z,0.00
2022-09-30T01:02:53.922Z,0.00
2022-09-30T01:03:53.920Z,0.00
2022-09-30T01:04:53.907Z,0.00
2022-09-30T01:05:53.901Z,0.00
2022-09-30T01:06:54.059Z,0.00
2022-09-30T01:07:53.899Z,0.00
2022-09-30T01:08:53.891Z,0.00
2022-09-30T01:09:54.991Z,0.00
2022-09-30T01:10:53.880Z,0.00
2022-09-30T01:11:53.868Z,0.00
2022-09-30T01:12:53.873Z,0.00
2022-09-30T01:13:53.860Z,0.00
2022-09-30T01:14:53.853Z,0.00
2022-09-30T01:15:53.919Z,0.00
2022-09-30T01:16:53.855Z,0.00
2022-09-30T01:17:53.838Z,0.00
2022-09-30T01:18:53.830Z,0.00
2022-09-30T01:19:53.827Z,0.00
2022-09-30T01:20:53.828Z,0.00
2022-09-30T01:21:53.814Z,0.00
2022-09-30T01:22:53.822Z,0.00
2022-09-30T01:23:53.813Z,0.00
2022-09-30T01:24:53.832Z,0.00
2022-09-30T01:25:53.860Z,0.00
2022-09-30T01:26:53.804Z,0.00
2022-09-30T01:27:53.852Z,0.00
2022-09-30T01:28:53.794Z,0.00
2022-09-30T01:29:53.783Z,0.00
2022-09-30T01:30:53.768Z,0.00
2022-09-30T01:31:53.838Z,0.00
2022-09-30T01:32:53.781Z,0.00
2022-09-30T01:33:53.764Z,0.00
2022-09-30T01:34:53.754Z,0.00
2022-09-30T01:35:53.738Z,0.00
2022-09-30T01:36:53.736Z,0.00
2022-09-30T01:37:53.729Z,0.00
2022-09-30T01:38:53.746Z,0.00
2022-09-30T01:39:53.732Z,0.00
2022-09-30T01:40:53.723Z,0.00
2022-09-30T01:41:53.719Z,0.00
2022-09-30T01:42:53.705Z,0.00
2022-09-30T01:43:53.762Z,0.00
2022-09-30T01:44:53.698Z,0.00
2022-09-30T01:45:53.694Z,0.00
2022-09-30T01:46:53.740Z,0.00
2022-09-30T01:47:53.678Z,0.00
2022-09-30T01:48:53.684Z,0.00
2022-09-30T01:49:53.679Z,0.00
2022-09-30T01:50:53.669Z,0.00
2022-09-30T01:51:53.673Z,0.00
2022-09-30T01:52:53.657Z,0.00
2022-09-30T01:53:53.656Z,0.00
2022-09-30T01:54:53.654Z,0.00
2022-09-30T01:55:53.640Z,0.00
2022-09-30T01:56:53.654Z,0.00
2022-09-30T01:57:53.628Z,0.00
2022-09-30T01:58:53.625Z,0.00
2022-09-30T01:59:53.642Z,0.00
2022-09-30T02:00:53.690Z,0.00
2022-09-30T02:01:53.633Z,0.00
2022-09-30T02:02:53.603Z,0.00
2022-09-30T02:03:53.598Z,0.00
2022-09-30T02:04:53.607Z,0.00
2022-09-30T02:05:53.588Z,0.00
2022-09-30T02:06:53.594Z,0.00
2022-09-30T02:07:53.570Z,0.00
2022-09-30T02:08:53.572Z,0.00
2022-09-30T02:09:53.607Z,0.00
2022-09-30T02:10:53.595Z,0.00
2022-09-30T02:11:53.551Z,0.00
2022-09-30T02:12:53.544Z,0.00
2022-09-30T02:13:53.556Z,0.00
2022-09-30T02:14:53.547Z,0.00
2022-09-30T02:15:53.568Z,0.00
2022-09-30T02:16:53.546Z,0.00
2022-09-30T02:17:53.528Z,0.00
2022-09-30T02:18:53.520Z,0.00
2022-09-30T02:19:53.514Z,0.00
2022-09-30T02:20:53.508Z,0.00
2022-09-30T02:21:53.555Z,0.00
2022-09-30T02:22:53.505Z,0.00
2022-09-30T02:23:53.489Z,0.00
2022-09-30T02:24:53.508Z,0.00
2022-09-30T02:25:53.492Z,0.00
2022-09-30T02:26:53.539Z,0.00
2022-09-30T02:27:53.478Z,0.00
2022-09-30T02:28:53.463Z,0.00
2022-09-30T02:29:53.459Z,0.00
2022-09-30T02:30:53.451Z,0.00
2022-09-30T02:31:53.526Z,0.00
2022-09-30T02:32:53.433Z,0.00
2022-09-30T02:33:53.434Z,0.00
2022-09-30T02:34:53.436Z,0.00
2022-09-30T02:35:53.426Z,0.00
2022-09-30T02:36:53.429Z,0.00
2022-09-30T02:37:54.753Z,0.00
2022-09-30T02:38:53.406Z,0.00
2022-09-30T02:39:53.413Z,0.00
2022-09-30T02:40:53.392Z,0.00
2022-09-30T02:41:53.414Z,0.00
2022-09-30T02:42:53.388Z,0.00
2022-09-30T02:43:53.415Z,0.00
2022-09-30T02:44:53.373Z,0.00
2022-09-30T02:45:53.362Z,0.00
2022-09-30T02:46:53.419Z,0.00
2022-09-30T02:47:53.352Z,0.00
2022-09-30T02:48:53.375Z,0.00
2022-09-30T02:49:53.356Z,0.00
2022-09-30T02:50:54.247Z,0.00
2022-09-30T02:51:53.347Z,0.00
2022-09-30T02:52:53.325Z,0.00
2022-09-30T02:53:53.325Z,0.00
2022-09-30T02:54:53.322Z,0.00
2022-09-30T02:55:53.322Z,0.00
2022-09-30T02:56:53.311Z,0.00
2022-09-30T02:57:53.313Z,0.00
2022-09-30T02:58:53.297Z,0.00
2022-09-30T02:59:53.306Z,0.00
2022-09-30T03:00:53.319Z,0.00
2022-09-30T03:01:53.314Z,0.00
2022-09-30T03:02:53.278Z,0.00
2022-09-30T03:03:53.272Z,0.00
2022-09-30T03:04:53.264Z,0.00
2022-09-30T03:05:53.261Z,0.00
2022-09-30T03:06:53.255Z,0.00
2022-09-30T03:07:53.276Z,0.00
2022-09-30T03:08:53.249Z,0.00
2022-09-30T03:09:53.233Z,0.00
2022-09-30T03:10:55.285Z,0.00
2022-09-30T03:11:53.222Z,0.00
2022-09-30T03:12:53.219Z,0.00
2022-09-30T03:13:53.217Z,0.00
2022-09-30T03:14:53.218Z,0.00
2022-09-30T03:15:53.264Z,0.00
2022-09-30T03:16:53.189Z,0.00
2022-09-30T03:17:53.193Z,0.00
2022-09-30T03:18:53.257Z,0.00
2022-09-30T03:19:53.185Z,0.00
2022-09-30T03:20:53.175Z,0.00
2022-09-30T03:21:53.174Z,0.00
2022-09-30T03:22:53.163Z,0.00
2022-09-30T03:23:53.166Z,0.00
2022-09-30T03:24:53.156Z,0.00
2022-09-30T03:25:53.157Z,0.00
2022-09-30T03:26:53.138Z,0.00
2022-09-30T03:27:53.131Z,0.00
2022-09-30T03:28:53.128Z,0.00
2022-09-30T03:29:53.122Z,0.00
2022-09-30T03:30:53.117Z,0.00
2022-09-30T03:31:53.165Z,0.00
2022-09-30T03:32:53.180Z,0.00
2022-09-30T03:33:53.105Z,0.00
2022-09-30T03:34:53.091Z,0.00
2022-09-30T03:35:53.100Z,0.00
2022-09-30T03:36:53.102Z,0.00
2022-09-30T03:37:53.082Z,0.00
2022-09-30T03:38:53.073Z,0.00
2022-09-30T03:39:53.077Z,0.00
2022-09-30T03:40:53.070Z,0.00
2022-09-30T03:41:53.055Z,0.00
2022-09-30T03:42:53.058Z,0.00
2022-09-30T03:43:53.049Z,0.00
2022-09-30T03:44:53.053Z,0.00
2022-09-30T03:45:53.047Z,0.00
2022-09-30T03:46:53.068Z,0.00
2022-09-30T03:47:53.019Z,0.00
2022-09-30T03:48:53.026Z,0.00
2022-09-30T03:49:53.037Z,0.00
2022-09-30T03:50:53.017Z,0.00
2022-09-30T03:51:52.999Z,0.00
2022-09-30T03:52:52.994Z,0.00
2022-09-30T03:53:52.994Z,0.00
2022-09-30T03:54:53.041Z,0.00
2022-09-30T03:55:52.976Z,0.00
2022-09-30T03:56:52.971Z,0.00
2022-09-30T03:57:53.743Z,0.00
2022-09-30T03:58:53.801Z,0.00
2022-09-30T03:59:52.952Z,0.00
2022-09-30T04:00:53.103Z,0.00
2022-09-30T04:01:53.011Z,0.00
2022-09-30T04:02:57.659Z,0.00
2022-09-30T04:03:52.938Z,0.00
2022-09-30T04:04:52.932Z,0.00
2022-09-30T04:05:52.950Z,0.00
2022-09-30T04:06:54.012Z,0.00
2022-09-30T04:07:52.901Z,0.00
2022-09-30T04:08:52.902Z,0.00
2022-09-30T04:09:52.899Z,0.00
2022-09-30T04:10:52.904Z,0.00
2022-09-30T04:11:52.897Z,0.00
2022-09-30T04:12:52.886Z,0.00
2022-09-30T04:13:52.870Z,0.00
2022-09-30T04:14:52.861Z,0.00
2022-09-30T04:15:52.906Z,0.00
2022-09-30T04:16:54.084Z,0.00
2022-09-30T04:17:52.855Z,0.00
2022-09-30T04:18:52.858Z,0.00
2022-09-30T04:19:52.845Z,0.00
2022-09-30T04:20:52.850Z,0.00
2022-09-30T04:21:52.835Z,0.00
2022-09-30T04:22:52.894Z,0.00
2022-09-30T04:23:52.812Z,0.00
2022-09-30T04:24:52.837Z,0.00
2022-09-30T04:25:52.804Z,0.00
2022-09-30T04:26:52.816Z,0.00
2022-09-30T04:27:52.818Z,0.00
2022-09-30T04:28:52.784Z,0.00
2022-09-30T04:29:52.787Z,0.00
2022-09-30T04:30:52.798Z,0.00
2022-09-30T04:31:52.840Z,0.00
2022-09-30T04:32:52.780Z,0.00
2022-09-30T04:33:52.786Z,0.00
2022-09-30T04:34:52.751Z,0.00
2022-09-30T04:35:52.754Z,4.00
2022-09-30T04:36:52.754Z,4.00
2022-09-30T04:37:52.753Z,4.00
2022-09-30T04:38:52.881Z,0.00
2022-09-30T04:39:52.830Z,4.00
2022-09-30T04:40:52.748Z,4.00
2022-09-30T04:41:52.723Z,4.00
2022-09-30T04:42:52.725Z,4.00
2022-09-30T04:43:52.708Z,8.00
2022-09-30T04:44:52.699Z,8.00
2022-09-30T04:45:52.847Z,12.00
2022-09-30T04:46:52.688Z,16.00
2022-09-30T04:47:52.673Z,16.00
2022-09-30T04:48:52.674Z,20.00
2022-09-30T04:49:52.671Z,24.00
2022-09-30T04:50:52.738Z,28.00
2022-09-30T04:51:52.670Z,32.00
2022-09-30T04:52:52.651Z,40.00
2022-09-30T04:53:52.660Z,44.00
2022-09-30T04:54:52.644Z,48.00
2022-09-30T04:55:52.704Z,56.00
2022-09-30T04:56:52.635Z,64.00
2022-09-30T04:57:52.625Z,68.00
2022-09-30T04:58:52.619Z,76.00
2022-09-30T04:59:52.625Z,88.00
2022-09-30T05:00:52.663Z,100.00
2022-09-30T05:01:52.749Z,112.00
2022-09-30T05:02:53.246Z,120.00
2022-09-30T05:03:52.594Z,132.00
2022-09-30T05:04:52.583Z,144.00
2022-09-30T05:05:52.570Z,160.00
2022-09-30T05:06:52.578Z,172.00
2022-09-30T05:07:52.578Z,184.00
2022-09-30T05:08:52.567Z,200.00
2022-09-30T05:09:52.573Z,216.00
2022-09-30T05:10:52.580Z,232.00
2022-09-30T05:11:52.550Z,248.00
2022-09-30T05:12:52.563Z,268.00
2022-09-30T05:13:52.531Z,284.00
2022-09-30T05:14:52.526Z,304.00
2022-09-30T05:15:52.555Z,324.00
2022-09-30T05:16:52.535Z,344.00
2022-09-30T05:17:52.544Z,372.00
2022-09-30T05:18:52.495Z,400.00
2022-09-30T05:19:52.493Z,436.00
2022-09-30T05:20:52.491Z,476.00
2022-09-30T05:21:52.479Z,516.00
2022-09-30T05:22:52.471Z,552.00
2022-09-30T05:23:52.480Z,584.00
2022-09-30T05:24:52.471Z,612.00
2022-09-30T05:25:52.453Z,644.00
2022-09-30T05:26:52.502Z,676.00
2022-09-30T05:27:52.448Z,708.00
2022-09-30T05:28:52.449Z,728.00
2022-09-30T05:29:52.429Z,756.00
2022-09-30T05:30:52.452Z,804.00
2022-09-30T05:31:52.468Z,856.00
2022-09-30T05:32:52.418Z,904.00
2022-09-30T05:33:57.172Z,952.00
2022-09-30T05:34:52.403Z,996.00
2022-09-30T05:35:52.411Z,1032.00
2022-09-30T05:36:52.400Z,1072.00
2022-09-30T05:37:52.385Z,1108.00
2022-09-30T05:38:52.396Z,1128.00
2022-09-30T05:39:52.419Z,1140.00
2022-09-30T05:40:52.385Z,1196.00
2022-09-30T05:41:52.503Z,1264.00
2022-09-30T05:42:52.357Z,1320.00
2022-09-30T05:43:52.346Z,1372.00
2022-09-30T05:44:52.350Z,1428.00
2022-09-30T05:45:52.341Z,1472.00
2022-09-30T05:46:52.404Z,1516.00
2022-09-30T05:47:52.343Z,1560.00
2022-09-30T05:48:52.332Z,1608.00
2022-09-30T05:49:56.037Z,1656.00
2022-09-30T05:50:52.315Z,1700.00
2022-09-30T05:51:52.378Z,1748.00
2022-09-30T05:52:52.308Z,1792.00
2022-09-30T05:53:52.332Z,1836.00
2022-09-30T05:54:52.305Z,1884.00
2022-09-30T05:55:52.308Z,1924.00
2022-09-30T05:56:52.306Z,1968.00
2022-09-30T05:57:52.273Z,2016.00
2022-09-30T05:58:52.273Z,2060.00
2022-09-30T05:59:52.269Z,2092.00
2022-09-30T06:00:52.261Z,2132.00
2022-09-30T06:01:52.420Z,2180.00
2022-09-30T06:02:52.341Z,2224.00
2022-09-30T06:03:52.238Z,2268.00
2022-09-30T06:04:52.246Z,2308.00
2022-09-30T06:05:52.243Z,2348.00
2022-09-30T06:06:52.232Z,2388.00
2022-09-30T06:07:52.233Z,2428.00
2022-09-30T06:08:52.225Z,2464.00
2022-09-30T06:09:52.202Z,2500.00
2022-09-30T06:10:52.423Z,2540.00
2022-09-30T06:11:52.191Z,2580.00
2022-09-30T06:12:52.201Z,2608.00
2022-09-30T06:13:52.198Z,2652.00
2022-09-30T06:14:52.757Z,2692.00
2022-09-30T06:15:52.186Z,2748.00
2022-09-30T06:16:52.269Z,2808.00
2022-09-30T06:17:52.191Z,2864.00
2022-09-30T06:18:52.174Z,2932.00
2022-09-30T06:19:52.166Z,2992.00
2022-09-30T06:20:52.147Z,3056.00
2022-09-30T06:21:52.142Z,3116.00
2022-09-30T06:22:52.137Z,3156.00
2022-09-30T06:23:52.157Z,3188.00
2022-09-30T06:24:55.126Z,3228.00
2022-09-30T06:25:52.124Z,3268.00
2022-09-30T06:26:52.121Z,3324.00
2022-09-30T06:27:52.114Z,3372.00
2022-09-30T06:28:52.114Z,3420.00
2022-09-30T06:29:52.128Z,3480.00
2022-09-30T06:30:52.106Z,3548.00
2022-09-30T06:31:52.120Z,3604.00
2022-09-30T06:32:52.100Z,3652.00
2022-09-30T06:33:52.134Z,3700.00
2022-09-30T06:34:52.758Z,3752.00
2022-09-30T06:35:52.065Z,3788.00
2022-09-30T06:36:52.080Z,3828.00
2022-09-30T06:37:52.060Z,3868.00
2022-09-30T06:38:52.052Z,3904.00
2022-09-30T06:39:52.075Z,3940.00
2022-09-30T06:40:52.043Z,3956.00
2022-09-30T06:41:52.060Z,3972.00
2022-09-30T06:42:52.037Z,3988.00
2022-09-30T06:43:55.502Z,4016.00
2022-09-30T06:44:53.594Z,4044.00
2022-09-30T06:45:52.651Z,4084.00
2022-09-30T06:46:54.175Z,4124.00
2022-09-30T06:47:59.791Z,4160.00
2022-09-30T06:48:53.631Z,4208.00
2022-09-30T06:49:52.193Z,4260.00
2022-09-30T06:51:00.550Z,4312.00
2022-09-30T06:51:51.991Z,4348.00
2022-09-30T06:52:52.052Z,4404.00
2022-09-30T06:53:53.370Z,4448.00
2022-09-30T06:54:51.977Z,4496.00
2022-09-30T06:55:51.971Z,4528.00
2022-09-30T06:56:51.993Z,4552.00
2022-09-30T06:57:51.959Z,4564.00
2022-09-30T06:58:51.958Z,4584.00
2022-09-30T06:59:51.967Z,4596.00
2022-09-30T07:00:51.996Z,4612.00
2022-09-30T07:01:51.998Z,4620.00
2022-09-30T07:02:51.984Z,4632.00
2022-09-30T07:03:54.659Z,4636.00
2022-09-30T07:04:51.934Z,4644.00
2022-09-30T07:05:51.918Z,4644.00
2022-09-30T07:06:51.916Z,4652.00
2022-09-30T07:07:51.905Z,4652.00
2022-09-30T07:08:51.952Z,4680.00
2022-09-30T07:09:54.410Z,4692.00
2022-09-30T07:10:51.912Z,4728.00
2022-09-30T07:11:51.896Z,4776.00
2022-09-30T07:12:51.890Z,4856.00
2022-09-30T07:13:51.893Z,4940.00
2022-09-30T07:14:51.927Z,5040.00
2022-09-30T07:15:51.870Z,5152.00
2022-09-30T07:16:52.797Z,5276.00
2022-09-30T07:17:51.874Z,5392.00
2022-09-30T07:18:51.908Z,5848.00
2022-09-30T07:19:51.864Z,7476.00
2022-09-30T07:20:52.978Z,9728.00
2022-09-30T07:21:51.850Z,15792.00
2022-09-30T07:22:52.759Z,20896.00
2022-09-30T07:23:51.837Z,23168.00
2022-09-30T07:24:51.829Z,29472.00
2022-09-30T07:25:51.832Z,20000.00
2022-09-30T07:26:51.839Z,10508.00
2022-09-30T07:27:51.837Z,10816.00
2022-09-30T07:28:51.831Z,20576.00
2022-09-30T07:30:59.823Z,70336.00
2022-09-30T07:31:51.842Z,72896.00
2022-09-30T07:32:51.813Z,72832.00
2022-09-30T07:33:51.805Z,70464.00
2022-09-30T07:34:51.812Z,72000.00
2022-09-30T07:35:51.799Z,73152.00
2022-09-30T07:36:51.803Z,71072.00
2022-09-30T07:37:51.807Z,69152.00
2022-09-30T07:38:51.817Z,69696.00
2022-09-30T07:39:51.817Z,70432.00
2022-09-30T07:40:51.816Z,72480.00
2022-09-30T07:41:52.773Z,74976.00
2022-09-30T07:42:51.820Z,75680.00
2022-09-30T07:43:51.843Z,73984.00
2022-09-30T07:44:51.873Z,77952.00
2022-09-30T07:45:53.026Z,79872.00
2022-09-30T07:46:51.880Z,79104.00
2022-09-30T07:47:53.855Z,79680.00
2022-09-30T07:48:51.871Z,81984.00
2022-09-30T07:49:51.978Z,81376.00
2022-09-30T07:50:51.884Z,81312.00
2022-09-30T07:51:51.894Z,80512.00
2022-09-30T07:52:51.894Z,81216.00
2022-09-30T07:53:51.910Z,80928.00
2022-09-30T07:54:51.908Z,83328.00
2022-09-30T07:55:51.988Z,85760.00
2022-09-30T07:57:09.164Z,84608.00
2022-09-30T07:57:51.944Z,81024.00
2022-09-30T07:58:52.780Z,80992.00
2022-09-30T07:59:51.961Z,83008.00
2022-09-30T08:00:52.063Z,76704.00
2022-09-30T08:01:52.067Z,74880.00
2022-09-30T08:02:52.005Z,79008.00
2022-09-30T08:03:52.003Z,78336.00
2022-09-30T08:04:52.016Z,76896.00
2022-09-30T08:05:52.040Z,75488.00
2022-09-30T08:06:52.049Z,71328.00
2022-09-30T08:07:52.058Z,68256.00
2022-09-30T08:08:53.290Z,68832.00
2022-09-30T08:09:52.142Z,72640.00
2022-09-30T08:10:52.091Z,72736.00
2022-09-30T08:11:52.109Z,71552.00
2022-09-30T08:12:54.577Z,71712.00
2022-09-30T08:13:52.135Z,72992.00
2022-09-30T08:14:52.138Z,69376.00
2022-09-30T08:15:52.158Z,70464.00
2022-09-30T08:16:52.198Z,69440.00
2022-09-30T08:17:52.187Z,68768.00
2022-09-30T08:18:52.196Z,68672.00
2022-09-30T08:19:52.198Z,58944.00
2022-09-30T08:20:52.207Z,38464.00
2022-09-30T08:21:52.328Z,21984.00
2022-09-30T08:22:52.231Z,19424.00
2022-09-30T08:23:52.246Z,18208.00
2022-09-30T08:24:52.264Z,17216.00
2022-09-30T08:25:53.619Z,16256.00
2022-09-30T08:26:52.371Z,15360.00
2022-09-30T08:27:52.381Z,14324.00
2022-09-30T08:28:52.407Z,13556.00
2022-09-30T08:29:58.255Z,12776.00
2022-09-30T08:30:52.348Z,12164.00
2022-09-30T08:31:52.475Z,11544.00
2022-09-30T08:32:52.458Z,10944.00
2022-09-30T08:33:53.818Z,10460.00
2022-09-30T08:34:52.408Z,10020.00
2022-09-30T08:35:52.401Z,9620.00
2022-09-30T08:36:54.534Z,9248.00
2022-09-30T08:37:52.403Z,8944.00
2022-09-30T08:38:52.407Z,8664.00
2022-09-30T08:39:54.340Z,8368.00
2022-09-30T08:40:52.440Z,8156.00
2022-09-30T08:41:52.439Z,7924.00
2022-09-30T08:42:55.534Z,7708.00
2022-09-30T08:43:52.459Z,7520.00
2022-09-30T08:44:52.451Z,7324.00
2022-09-30T08:45:52.539Z,7168.00
2022-09-30T08:46:57.441Z,7000.00
2022-09-30T08:47:52.475Z,6828.00
2022-09-30T08:48:52.472Z,6624.00
2022-09-30T08:49:52.494Z,6476.00
2022-09-30T08:50:52.511Z,6340.00
2022-09-30T08:51:52.492Z,6216.00
2022-09-30T08:52:52.497Z,6068.00
2022-09-30T08:53:52.498Z,5936.00
2022-09-30T08:54:52.578Z,5836.00
2022-09-30T08:55:52.509Z,5684.00
2022-09-30T08:56:52.530Z,5568.00
2022-09-30T08:57:52.524Z,5452.00
2022-09-30T08:58:52.514Z,5332.00
2022-09-30T08:59:52.527Z,5248.00
2022-09-30T09:00:52.564Z,5148.00
2022-09-30T09:01:52.562Z,5056.00
2022-09-30T09:02:52.592Z,4980.00
2022-09-30T09:03:52.562Z,4908.00
2022-09-30T09:04:52.533Z,4804.00
2022-09-30T09:05:52.791Z,4736.00
2022-09-30T09:06:52.546Z,4676.00
2022-09-30T09:07:52.548Z,4596.00
2022-09-30T09:08:52.531Z,4528.00
2022-09-30T09:09:52.534Z,4480.00
2022-09-30T09:10:53.437Z,4420.00
2022-09-30T09:11:52.569Z,4324.00
2022-09-30T09:12:52.541Z,4288.00
2022-09-30T09:13:52.537Z,4240.00
2022-09-30T09:14:52.541Z,4212.00
2022-09-30T09:15:52.549Z,4200.00
2022-09-30T09:16:52.601Z,4168.00
2022-09-30T09:18:18.189Z,4132.00
2022-09-30T09:18:52.546Z,4104.00
2022-09-30T09:19:52.553Z,4072.00
2022-09-30T09:20:52.568Z,4040.00
2022-09-30T09:21:53.850Z,3992.00
2022-09-30T09:22:52.556Z,3980.00
2022-09-30T09:23:52.550Z,3944.00
2022-09-30T09:24:52.548Z,3892.00
2022-09-30T09:25:52.550Z,3856.00
2022-09-30T09:26:52.558Z,3816.00
2022-09-30T09:27:52.610Z,3768.00
2022-09-30T09:28:53.773Z,3764.00
2022-09-30T09:29:52.569Z,3772.00
2022-09-30T09:30:52.549Z,3768.00
2022-09-30T09:31:52.581Z,3752.00
2022-09-30T09:32:52.626Z,3732.00
2022-09-30T09:33:52.552Z,3712.00
2022-09-30T09:34:52.556Z,3716.00
2022-09-30T09:35:52.551Z,3728.00
2022-09-30T09:36:52.547Z,3724.00
2022-09-30T09:37:52.575Z,3712.00
2022-09-30T09:38:52.550Z,3700.00
2022-09-30T09:39:52.554Z,3668.00
2022-09-30T09:40:56.380Z,3664.00
2022-09-30T09:41:52.562Z,3644.00
2022-09-30T09:42:52.571Z,3624.00
2022-09-30T09:43:52.573Z,3604.00
2022-09-30T09:44:52.595Z,3572.00
2022-09-30T09:45:52.597Z,3556.00
2022-09-30T09:46:52.591Z,3532.00
2022-09-30T09:47:52.560Z,3500.00
2022-09-30T09:48:52.550Z,3492.00
2022-09-30T09:49:56.788Z,3492.00
2022-09-30T09:50:52.549Z,3480.00
2022-09-30T09:51:52.581Z,3452.00
2022-09-30T09:52:52.590Z,3424.00
2022-09-30T09:53:52.559Z,3428.00
2022-09-30T09:54:52.587Z,3380.00
2022-09-30T09:55:53.838Z,3352.00
2022-09-30T09:56:52.563Z,3336.00
2022-09-30T09:57:53.407Z,3316.00
2022-09-30T09:58:52.550Z,3300.00
2022-09-30T09:59:52.560Z,3268.00
2022-09-30T10:00:52.577Z,3224.00
2022-09-30T10:01:54.481Z,3184.00
2022-09-30T10:02:52.540Z,3136.00
2022-09-30T10:03:52.542Z,3100.00
2022-09-30T10:04:52.560Z,3104.00
2022-09-30T10:05:52.568Z,3108.00
2022-09-30T10:06:52.540Z,3096.00
2022-09-30T10:07:52.544Z,3060.00
2022-09-30T10:08:52.541Z,3020.00
2022-09-30T10:09:52.531Z,2980.00
2022-09-30T10:10:54.346Z,2956.00
2022-09-30T10:11:52.538Z,2932.00
2022-09-30T10:12:52.547Z,2896.00
2022-09-30T10:13:52.533Z,2868.00
2022-09-30T10:14:52.542Z,2892.00
2022-09-30T10:15:52.572Z,2924.00
2022-09-30T10:16:52.532Z,2968.00
2022-09-30T10:17:52.547Z,2976.00
2022-09-30T10:18:52.554Z,2928.00
2022-09-30T10:19:52.545Z,2852.00
2022-09-30T10:20:52.528Z,2832.00
2022-09-30T10:21:55.305Z,2816.00
2022-09-30T10:22:52.558Z,2812.00
2022-09-30T10:23:52.528Z,2800.00
2022-09-30T10:24:52.534Z,2792.00
2022-09-30T10:25:52.525Z,2756.00
2022-09-30T10:26:52.533Z,2752.00
2022-09-30T10:27:52.564Z,2760.00
2022-09-30T10:28:52.521Z,2740.00
2022-09-30T10:29:52.533Z,2668.00
2022-09-30T10:30:52.540Z,2640.00
2022-09-30T10:31:56.053Z,2604.00
2022-09-30T10:32:52.520Z,2560.00
2022-09-30T10:33:52.519Z,2536.00
2022-09-30T10:34:52.520Z,2512.00
2022-09-30T10:35:52.567Z,2464.00
2022-09-30T10:36:53.847Z,2452.00
2022-09-30T10:37:52.530Z,2444.00
2022-09-30T10:38:52.522Z,2452.00
2022-09-30T10:39:52.520Z,2456.00
2022-09-30T10:40:52.518Z,2392.00
2022-09-30T10:41:52.536Z,2348.00
2022-09-30T10:42:52.544Z,2336.00
2022-09-30T10:43:52.516Z,2284.00
2022-09-30T10:44:52.514Z,2268.00
2022-09-30T10:46:13.482Z,2252.00
2022-09-30T10:46:52.593Z,2116.00
2022-09-30T10:47:52.521Z,2188.00
2022-09-30T10:48:52.518Z,2204.00
2022-09-30T10:49:52.509Z,2204.00
2022-09-30T10:50:52.518Z,2196.00
2022-09-30T10:51:52.504Z,2188.00
2022-09-30T10:52:52.519Z,2188.00
2022-09-30T10:53:52.508Z,2168.00
2022-09-30T10:54:52.506Z,2160.00
2022-09-30T10:55:52.513Z,2144.00
2022-09-30T10:56:52.496Z,2116.00
2022-09-30T10:57:52.500Z,2104.00
2022-09-30T10:58:52.593Z,2116.00
2022-09-30T10:59:52.504Z,2132.00
2022-09-30T11:00:52.549Z,2132.00
2022-09-30T11:01:55.046Z,2132.00
2022-09-30T11:02:53.990Z,2128.00
2022-09-30T11:03:52.540Z,2140.00
2022-09-30T11:04:52.502Z,2132.00
2022-09-30T11:05:52.490Z,2116.00
2022-09-30T11:06:52.495Z,2124.00
2022-09-30T11:07:52.508Z,2144.00
2022-09-30T11:08:52.486Z,2148.00
2022-09-30T11:09:52.497Z,2160.00
2022-09-30T11:10:53.916Z,2172.00
2022-09-30T11:11:52.490Z,2188.00
2022-09-30T11:12:52.486Z,2200.00
2022-09-30T11:13:52.509Z,2220.00
2022-09-30T11:14:52.483Z,2204.00
2022-09-30T11:15:52.553Z,2224.00
2022-09-30T11:16:52.592Z,2252.00
2022-09-30T11:17:52.480Z,2256.00
2022-09-30T11:18:52.491Z,2256.00
2022-09-30T11:19:52.504Z,2252.00
2022-09-30T11:20:52.478Z,2252.00
2022-09-30T11:21:52.492Z,2244.00
2022-09-30T11:22:52.481Z,2236.00
2022-09-30T11:23:52.477Z,2220.00
2022-09-30T11:24:52.469Z,2220.00
2022-09-30T11:25:52.477Z,2204.00
2022-09-30T11:26:52.473Z,2204.00
2022-09-30T11:27:52.558Z,2228.00
2022-09-30T11:28:52.466Z,2260.00
2022-09-30T11:29:52.474Z,2324.00
2022-09-30T11:30:52.820Z,2420.00
2022-09-30T11:31:52.524Z,2476.00
2022-09-30T11:32:52.478Z,2528.00
2022-09-30T11:33:52.467Z,2572.00
2022-09-30T11:34:52.465Z,2596.00
2022-09-30T11:35:52.475Z,2544.00
2022-09-30T11:36:52.457Z,2488.00
2022-09-30T11:37:52.451Z,2516.00
2022-09-30T11:38:52.457Z,2580.00
2022-09-30T11:39:52.462Z,2216.00
2022-09-30T11:40:52.455Z,2692.00
2022-09-30T11:41:52.447Z,2840.00
2022-09-30T11:42:52.458Z,2924.00
2022-09-30T11:43:52.452Z,2836.00
2022-09-30T11:44:54.870Z,2716.00
2022-09-30T11:45:52.511Z,2644.00
2022-09-30T11:46:52.447Z,2600.00
2022-09-30T11:47:52.455Z,2600.00
2022-09-30T11:48:52.447Z,2608.00
2022-09-30T11:49:52.447Z,2588.00
2022-09-30T11:50:52.444Z,2520.00
2022-09-30T11:51:52.523Z,2476.00
2022-09-30T11:52:52.469Z,2508.00
2022-09-30T11:53:52.452Z,2524.00
2022-09-30T11:54:52.440Z,2552.00
2022-09-30T11:55:52.438Z,2600.00
2022-09-30T11:56:52.436Z,2660.00
2022-09-30T11:57:52.437Z,2632.00
2022-09-30T11:58:52.438Z,2044.00
2022-09-30T11:59:52.439Z,1940.00
2022-09-30T12:00:52.445Z,2028.00
2022-09-30T12:01:52.473Z,2060.00
2022-09-30T12:02:52.470Z,2816.00
2022-09-30T12:03:52.447Z,2732.00
2022-09-30T12:04:52.443Z,2808.00
2022-09-30T12:05:52.435Z,2772.00
2022-09-30T12:06:52.453Z,2712.00
2022-09-30T12:07:52.427Z,2632.00
2022-09-30T12:08:52.423Z,2580.00
2022-09-30T12:09:52.438Z,2524.00
2022-09-30T12:10:53.883Z,2520.00
2022-09-30T12:11:52.419Z,2548.00
2022-09-30T12:12:52.420Z,2624.00
2022-09-30T12:13:52.439Z,2624.00
2022-09-30T12:14:52.424Z,2604.00
2022-09-30T12:15:52.426Z,2560.00
2022-09-30T12:16:52.484Z,2516.00
2022-09-30T12:17:52.464Z,2444.00
2022-09-30T12:18:52.415Z,2424.00
2022-09-30T12:19:52.417Z,2384.00
2022-09-30T12:20:52.420Z,2168.00
2022-09-30T12:21:52.431Z,2384.00
2022-09-30T12:22:52.416Z,2380.00
2022-09-30T12:23:52.421Z,2360.00
2022-09-30T12:24:52.436Z,2384.00
2022-09-30T12:25:52.423Z,2440.00
2022-09-30T12:26:52.416Z,2480.00
2022-09-30T12:27:52.438Z,2472.00
2022-09-30T12:28:52.418Z,1612.00
2022-09-30T12:29:52.432Z,1564.00
2022-09-30T12:30:52.409Z,2392.00
2022-09-30T12:31:52.530Z,2444.00
2022-09-30T12:32:52.401Z,2464.00